createdAt,value
2022-10-08T00:00:30.653Z,56.6
2022-10-08T00:01:31.628Z,56.7
2022-10-08T00:02:32.393Z,57
2022-10-08T00:03:33.514Z,56.8
2022-10-08T00:04:34.502Z,56.7
2022-10-08T00:05:35.918Z,56.7
2022-10-08T00:06:37.576Z,56.5
2022-10-08T00:07:38.400Z,56.2
2022-10-08T00:08:39.802Z,56.3
2022-10-08T00:09:41.692Z,56.2
2022-10-08T00:10:43.577Z,56.2
2022-10-08T00:11:44.512Z,56.5
2022-10-08T00:12:45.862Z,56.7
2022-10-08T00:13:46.501Z,57
2022-10-08T00:14:47.572Z,57
2022-10-08T00:15:48.844Z,57.2
2022-10-08T00:16:50.698Z,57.1
2022-10-08T00:17:52.560Z,57
2022-10-08T00:18:53.572Z,57.1
2022-10-08T00:19:54.613Z,57.1
2022-10-08T00:20:55.633Z,57.2
2022-10-08T00:21:56.802Z,57.2
2022-10-08T00:22:58.474Z,57.6
2022-10-08T00:23:59.513Z,57.6
2022-10-08T00:25:00.563Z,57.7
2022-10-08T00:26:01.617Z,57.7
2022-10-08T00:27:02.532Z,57.8
2022-10-08T00:28:03.559Z,57.8
2022-10-08T00:29:04.515Z,58
2022-10-08T00:30:05.553Z,58.2
2022-10-08T00:31:06.757Z,58.4
2022-10-08T00:32:08.673Z,58.5
2022-10-08T00:33:10.733Z,58.6
2022-10-08T00:34:12.717Z,58.7
2022-10-08T00:35:14.833Z,58.8
2022-10-08T00:36:16.635Z,59
2022-10-08T00:37:17.597Z,58.4
2022-10-08T00:38:18.632Z,58.8
2022-10-08T00:39:19.751Z,59
2022-10-08T00:40:21.812Z,59.3
2022-10-08T00:41:23.573Z,59
2022-10-08T00:42:24.573Z,59.4
2022-10-08T00:43:26.138Z,59.3
2022-10-08T00:44:26.552Z,58.7
2022-10-08T00:45:27.677Z,59.3
2022-10-08T00:46:28.593Z,59.5
2022-10-08T00:47:29.533Z,59.7
2022-10-08T00:48:30.595Z,59.6
2022-10-08T00:49:31.518Z,59.8
2022-10-08T00:50:32.596Z,59.9
2022-10-08T00:51:33.541Z,59.8
2022-10-08T00:52:34.598Z,59.8
2022-10-08T00:53:35.572Z,59.8
2022-10-08T00:54:36.593Z,59.8
2022-10-08T00:55:41.257Z,59.7
2022-10-08T00:56:38.571Z,59.9
2022-10-08T00:57:39.752Z,60
2022-10-08T00:58:41.568Z,60.1
2022-10-08T00:59:42.592Z,60.1
2022-10-08T01:03:44.533Z,60.2
2022-10-08T01:04:45.640Z,60.3
2022-10-08T01:05:46.652Z,60.5
2022-10-08T01:06:47.511Z,60.5
2022-10-08T01:07:48.601Z,60.7
2022-10-08T01:08:49.689Z,60.8
2022-10-08T01:09:50.636Z,60.8
2022-10-08T01:10:51.753Z,60.8
2022-10-08T01:11:53.550Z,60.8
2022-10-08T01:12:54.511Z,60.8
2022-10-08T01:13:55.538Z,60.6
2022-10-08T01:14:56.663Z,60.7
2022-10-08T01:15:58.127Z,60.6
2022-10-08T01:16:59.573Z,60.6
2022-10-08T01:18:00.631Z,60.6
2022-10-08T01:19:01.732Z,60.4
2022-10-08T01:20:03.631Z,60.4
2022-10-08T01:21:04.811Z,60.3
2022-10-08T01:22:06.771Z,60.3
2022-10-08T01:23:08.736Z,59.6
2022-10-08T01:24:10.780Z,60.2
2022-10-08T01:25:12.812Z,60.3
2022-10-08T01:26:14.634Z,60.5
2022-10-08T01:27:15.599Z,60.4
2022-10-08T01:28:16.703Z,60.4
2022-10-08T01:29:17.572Z,60.3
2022-10-08T01:30:18.612Z,60.3
2022-10-08T01:31:19.844Z,60.4
2022-10-08T01:32:21.795Z,60.3
2022-10-08T01:33:24.472Z,60.1
2022-10-08T01:34:25.571Z,59.8
2022-10-08T01:35:26.592Z,58.8
2022-10-08T01:36:27.594Z,59.4
2022-10-08T01:37:28.571Z,59.6
2022-10-08T01:38:29.554Z,59.4
2022-10-08T01:39:30.781Z,59.4
2022-10-08T01:40:32.672Z,59.2
2022-10-08T01:41:33.573Z,59.1
2022-10-08T01:42:34.611Z,59.1
2022-10-08T01:43:35.551Z,59
2022-10-08T01:44:36.592Z,58.9
2022-10-08T01:45:37.785Z,58.7
2022-10-08T01:46:39.611Z,58.7
2022-10-08T01:47:40.572Z,58.6
2022-10-08T01:48:41.612Z,58.5
2022-10-08T01:49:42.607Z,58.6
2022-10-08T01:50:43.872Z,58.6
2022-10-08T01:51:45.771Z,58.4
2022-10-08T01:52:48.256Z,58.4
2022-10-08T01:53:49.645Z,58.3
2022-10-08T01:54:50.651Z,58.3
2022-10-08T01:55:51.654Z,58.3
2022-10-08T01:56:52.591Z,58.2
2022-10-08T01:57:53.592Z,58.4
2022-10-08T01:58:54.611Z,58.4
2022-10-08T01:59:55.692Z,58.4
2022-10-08T02:00:56.770Z,58.3
2022-10-08T02:01:58.703Z,58
2022-10-08T02:02:59.613Z,58.2
2022-10-08T02:04:00.593Z,58.5
2022-10-08T02:05:01.732Z,58.8
2022-10-08T02:06:03.692Z,59.1
2022-10-08T02:07:04.820Z,59.2
2022-10-08T02:08:06.831Z,59.1
2022-10-08T02:09:08.815Z,58.5
2022-10-08T02:10:10.856Z,58.5
2022-10-08T02:11:12.912Z,58.3
2022-10-08T02:12:14.611Z,58.1
2022-10-08T02:13:15.612Z,57.9
2022-10-08T02:14:16.637Z,57.7
2022-10-08T02:15:17.633Z,57.4
2022-10-08T02:16:18.825Z,57.2
2022-10-08T02:17:20.852Z,57
2022-10-08T02:18:22.673Z,56.9
2022-10-08T02:19:23.612Z,56.8
2022-10-08T02:20:24.693Z,56.6
2022-10-08T02:21:25.598Z,56.7
2022-10-08T02:22:26.652Z,56.8
2022-10-08T02:23:27.591Z,56.6
2022-10-08T02:24:28.695Z,56.8
2022-10-08T02:25:29.639Z,57
2022-10-08T02:26:30.651Z,56.9
2022-10-08T02:27:31.652Z,57.1
2022-10-08T02:28:32.730Z,57.3
2022-10-08T02:29:33.632Z,57.4
2022-10-08T02:30:34.681Z,57.6
2022-10-08T02:31:35.877Z,57.5
2022-10-08T02:32:37.638Z,57.4
2022-10-08T02:33:38.592Z,57.4
2022-10-08T02:34:39.816Z,57.5
2022-10-08T02:35:41.752Z,57.7
2022-10-08T02:36:43.772Z,57.7
2022-10-08T02:37:45.731Z,57.9
2022-10-08T02:38:47.811Z,58.3
2022-10-08T02:39:49.835Z,58.2
2022-10-08T02:40:51.831Z,58
2022-10-08T02:41:53.692Z,58
2022-10-08T02:42:54.614Z,58.2
2022-10-08T02:43:55.552Z,58.2
2022-10-08T02:44:56.611Z,58.2
2022-10-08T02:45:58.244Z,57.9
2022-10-08T02:46:59.592Z,57.9
2022-10-08T02:48:00.674Z,57.9
2022-10-08T02:49:01.631Z,58.2
2022-10-08T02:50:02.734Z,58.4
2022-10-08T02:51:03.611Z,58.5
2022-10-08T02:52:04.631Z,58.5
2022-10-08T02:53:05.638Z,58.4
2022-10-08T02:54:06.691Z,58.4
2022-10-08T02:55:07.720Z,58.4
2022-10-08T02:56:08.644Z,58.5
2022-10-08T02:57:09.838Z,58.6
2022-10-08T02:58:10.681Z,58.7
2022-10-08T02:59:11.611Z,58.9
2022-10-08T03:00:12.651Z,59
2022-10-08T03:01:13.779Z,59.3
2022-10-08T03:02:14.961Z,59.6
2022-10-08T03:03:16.854Z,59.4
2022-10-08T03:04:18.661Z,60.3
2022-10-08T03:05:19.691Z,60.6
2022-10-08T03:06:20.751Z,60.8
2022-10-08T03:07:22.696Z,60.9
2022-10-08T03:08:23.691Z,60.8
2022-10-08T03:09:24.631Z,60.8
2022-10-08T03:10:25.718Z,60.7
2022-10-08T03:11:26.631Z,60.8
2022-10-08T03:12:27.716Z,60.8
2022-10-08T03:13:28.711Z,60.8
2022-10-08T03:14:29.772Z,60.7
2022-10-08T03:15:31.791Z,60.6
2022-10-08T03:16:33.680Z,60.5
2022-10-08T03:17:34.631Z,60.3
2022-10-08T03:18:35.675Z,60.5
2022-10-08T03:19:36.676Z,60.6
2022-10-08T03:20:37.692Z,61
2022-10-08T03:21:38.637Z,61.1
2022-10-08T03:22:39.791Z,61.2
2022-10-08T03:23:41.891Z,61.1
2022-10-08T03:24:43.691Z,61.1
2022-10-08T03:25:44.676Z,60.9
2022-10-08T03:26:45.692Z,60.8
2022-10-08T03:27:46.673Z,60.2
2022-10-08T03:28:47.755Z,60.3
2022-10-08T03:29:48.691Z,60.2
2022-10-08T03:30:49.875Z,59.9
2022-10-08T03:31:51.871Z,59.8
2022-10-08T03:32:53.631Z,59.7
2022-10-08T03:33:54.654Z,59.5
2022-10-08T03:34:55.652Z,59.4
2022-10-08T03:35:56.653Z,59.2
2022-10-08T03:36:58.031Z,58.8
2022-10-08T03:37:59.674Z,58.9
2022-10-08T03:39:00.651Z,59.1
2022-10-08T03:40:01.653Z,58.6
2022-10-08T03:41:03.095Z,59
2022-10-08T03:42:04.631Z,59
2022-10-08T03:43:05.794Z,58.8
2022-10-08T03:44:07.778Z,58.8
2022-10-08T03:45:09.631Z,58.8
2022-10-08T03:46:10.777Z,58.9
2022-10-08T03:47:11.691Z,58.9
2022-10-08T03:48:12.639Z,59.2
2022-10-08T03:49:13.698Z,59.4
2022-10-08T03:50:14.752Z,58.8
2022-10-08T03:51:15.732Z,59.3
2022-10-08T03:52:16.791Z,59.6
2022-10-08T03:53:18.713Z,59.7
2022-10-08T03:54:19.806Z,59.7
2022-10-08T03:55:21.832Z,59.1
2022-10-08T03:56:23.738Z,59.5
2022-10-08T03:57:24.618Z,59.7
2022-10-08T03:58:25.712Z,59.4
2022-10-08T03:59:26.739Z,59.4
2022-10-08T04:00:27.637Z,59.4
2022-10-08T04:01:28.894Z,59.6
2022-10-08T04:02:29.664Z,60
2022-10-08T04:03:30.752Z,60.3
2022-10-08T04:04:31.631Z,60.4
2022-10-08T04:05:32.620Z,60.3
2022-10-08T04:06:33.773Z,60.6
2022-10-08T04:07:34.677Z,60.7
2022-10-08T04:08:35.672Z,60.9
2022-10-08T04:09:36.711Z,61
2022-10-08T04:10:37.712Z,61.2
2022-10-08T04:11:38.757Z,61.3
2022-10-08T04:12:39.733Z,61.5
2022-10-08T04:13:40.732Z,61.7
2022-10-08T04:14:41.691Z,62
2022-10-08T04:15:42.815Z,62.3
2022-10-08T04:16:43.713Z,62.3
2022-10-08T04:17:44.671Z,62.4
2022-10-08T04:18:45.731Z,62.3
2022-10-08T04:19:46.720Z,62.2
2022-10-08T04:20:47.693Z,62.1
2022-10-08T04:21:48.712Z,61.8
2022-10-08T04:22:50.097Z,61.7
2022-10-08T04:23:50.950Z,61.7
2022-10-08T04:24:52.912Z,61.7
2022-10-08T04:25:54.694Z,61.8
2022-10-08T04:26:55.756Z,61.8
2022-10-08T04:27:56.671Z,61.8
2022-10-08T04:28:58.171Z,61.9
2022-10-08T04:29:59.821Z,61.9
2022-10-08T04:31:01.961Z,61.8
2022-10-08T04:32:03.852Z,61.7
2022-10-08T04:33:06.074Z,61.5
2022-10-08T04:34:07.692Z,61.4
2022-10-08T04:35:08.771Z,61.4
2022-10-08T04:36:09.619Z,61.1
2022-10-08T04:37:10.772Z,61.1
2022-10-08T04:38:11.732Z,61.1
2022-10-08T04:39:12.671Z,61.1
2022-10-08T04:40:13.714Z,61.2
2022-10-08T04:41:14.732Z,61.3
2022-10-08T04:42:15.777Z,61.4
2022-10-08T04:43:16.760Z,61.3
2022-10-08T04:44:17.774Z,61.2
2022-10-08T04:45:18.651Z,61
2022-10-08T04:46:19.825Z,60.9
2022-10-08T04:47:20.671Z,60.8
2022-10-08T04:48:21.768Z,60.8
2022-10-08T04:49:22.777Z,60.7
2022-10-08T04:50:23.679Z,60.7
2022-10-08T04:51:24.671Z,60.6
2022-10-08T04:52:25.672Z,60.4
2022-10-08T04:53:26.761Z,60.2
2022-10-08T04:54:27.694Z,60
2022-10-08T04:55:28.695Z,59.8
2022-10-08T04:56:29.658Z,59.6
2022-10-08T04:57:30.757Z,59.4
2022-10-08T04:58:31.733Z,59.5
2022-10-08T04:59:32.749Z,59.7
2022-10-08T05:00:33.753Z,59.6
2022-10-08T05:01:34.763Z,59.5
2022-10-08T05:02:35.733Z,59.6
2022-10-08T05:03:36.653Z,59.6
2022-10-08T05:04:37.752Z,59.6
2022-10-08T05:05:38.660Z,60
2022-10-08T05:06:39.813Z,60.4
2022-10-08T05:07:40.792Z,60.6
2022-10-08T05:08:41.718Z,60.8
2022-10-08T05:09:42.731Z,61.2
2022-10-08T05:10:43.732Z,61
2022-10-08T05:11:44.774Z,61.4
2022-10-08T05:12:46.047Z,61.6
2022-10-08T05:13:46.733Z,61.7
2022-10-08T05:14:47.814Z,61.6
2022-10-08T05:15:48.801Z,61.7
2022-10-08T05:16:49.733Z,61.9
2022-10-08T05:17:50.838Z,62
2022-10-08T05:18:52.672Z,61.6
2022-10-08T05:19:53.812Z,61.6
2022-10-08T05:20:54.791Z,61.7
2022-10-08T05:21:55.791Z,61.7
2022-10-08T05:22:56.731Z,61.8
2022-10-08T05:23:58.392Z,61.7
2022-10-08T05:24:59.769Z,62
2022-10-08T05:26:00.742Z,62.1
2022-10-08T05:27:01.832Z,62.2
2022-10-08T05:28:02.947Z,62.2
2022-10-08T05:29:04.832Z,62.2
2022-10-08T05:30:05.697Z,62.3
2022-10-08T05:31:06.839Z,62.5
2022-10-08T05:32:07.811Z,62.7
2022-10-08T05:33:08.734Z,62.7
2022-10-08T05:34:09.672Z,62.6
2022-10-08T05:35:10.695Z,62.6
2022-10-08T05:36:11.776Z,62.6
2022-10-08T05:37:12.711Z,62.7
2022-10-08T05:38:13.672Z,62.9
2022-10-08T05:39:14.732Z,62.9
2022-10-08T05:40:15.692Z,62.8
2022-10-08T05:41:16.752Z,62.7
2022-10-08T05:42:17.991Z,62.7
2022-10-08T05:43:19.736Z,62.7
2022-10-08T05:44:20.694Z,62.7
2022-10-08T05:45:21.793Z,62.7
2022-10-08T05:46:22.840Z,62.5
2022-10-08T05:47:24.151Z,62.3
2022-10-08T05:48:25.731Z,62.2
2022-10-08T05:49:26.792Z,62.2
2022-10-08T05:50:27.771Z,62.1
2022-10-08T05:51:28.752Z,62.1
2022-10-08T05:52:29.780Z,62.3
2022-10-08T05:53:30.732Z,62.4
2022-10-08T05:54:31.872Z,62.5
2022-10-08T05:55:33.752Z,62.3
2022-10-08T05:56:34.712Z,62
2022-10-08T05:57:35.631Z,61.9
2022-10-08T05:58:36.816Z,61.5
2022-10-08T05:59:37.852Z,61.2
2022-10-08T06:00:39.853Z,61.1
2022-10-08T06:01:41.932Z,60.9
2022-10-08T06:02:44.065Z,60.7
2022-10-08T06:03:45.791Z,60.6
2022-10-08T06:04:46.851Z,60.6
2022-10-08T06:05:47.791Z,60.6
2022-10-08T06:06:48.916Z,60.5
2022-10-08T06:07:50.792Z,60.5
2022-10-08T06:08:51.811Z,60.6
2022-10-08T06:09:52.892Z,60.4
2022-10-08T06:10:54.760Z,60.2
2022-10-08T06:11:55.811Z,60.2
2022-10-08T06:12:56.691Z,60
2022-10-08T06:13:58.416Z,60
2022-10-08T06:14:59.831Z,59.5
2022-10-08T06:16:00.975Z,60
2022-10-08T06:17:02.932Z,60.3
2022-10-08T06:18:04.854Z,60.7
2022-10-08T06:19:07.609Z,60.8
2022-10-08T06:20:08.934Z,60.9
2022-10-08T06:21:10.773Z,60.9
2022-10-08T06:22:11.708Z,60.9
2022-10-08T06:23:12.732Z,60.9
2022-10-08T06:24:13.916Z,60.8
2022-10-08T06:25:15.831Z,60.6
2022-10-08T06:26:16.989Z,60.5
2022-10-08T06:27:18.852Z,60.7
2022-10-08T06:28:20.855Z,60.7
2022-10-08T06:29:21.897Z,60.7
2022-10-08T06:30:23.821Z,60.7
2022-10-08T06:31:24.758Z,60.5
2022-10-08T06:32:25.772Z,60.5
2022-10-08T06:33:26.672Z,60.5
2022-10-08T06:34:27.792Z,60.4
2022-10-08T06:35:28.933Z,60.1
2022-10-08T06:36:30.911Z,60.2
2022-10-08T06:37:32.801Z,60.4
2022-10-08T06:38:33.868Z,60.2
2022-10-08T06:39:35.943Z,60.1
2022-10-08T06:40:37.896Z,59.8
2022-10-08T06:41:39.702Z,60.2
2022-10-08T06:42:41.375Z,60.3
2022-10-08T06:43:42.663Z,59.7
2022-10-08T06:44:43.824Z,59.3
2022-10-08T06:45:44.825Z,59
2022-10-08T06:46:45.884Z,58.9
2022-10-08T06:47:47.995Z,58.4
2022-10-08T06:48:49.896Z,58.6
2022-10-08T06:49:51.873Z,58.8
2022-10-08T06:50:53.846Z,59
2022-10-08T06:51:55.038Z,58.6
2022-10-08T06:52:56.776Z,58.9
2022-10-08T06:54:01.613Z,58.5
2022-10-08T06:54:59.686Z,58.5
2022-10-08T06:56:00.901Z,58.5
2022-10-08T06:57:02.750Z,58.3
2022-10-08T06:58:03.667Z,58.2
2022-10-08T06:59:04.721Z,58.1
2022-10-08T07:00:05.911Z,57.6
2022-10-08T07:01:08.095Z,57.6
2022-10-08T07:02:10.025Z,57.9
2022-10-08T07:03:11.751Z,57.9
2022-10-08T07:04:12.710Z,58.1
2022-10-08T07:05:13.751Z,58.7
2022-10-08T07:06:14.738Z,58.8
2022-10-08T07:07:15.811Z,58.6
2022-10-08T07:08:16.821Z,58.4
2022-10-08T07:09:17.839Z,58.3
2022-10-08T07:10:19.032Z,58
2022-10-08T07:11:20.778Z,58
2022-10-08T07:12:22.247Z,58.3
2022-10-08T07:13:23.772Z,57.7
2022-10-08T07:17:23.101Z,58.1
2022-10-08T07:18:24.793Z,57.6
2022-10-08T07:19:25.814Z,57.9
2022-10-08T07:20:26.813Z,57.9
2022-10-08T07:21:27.807Z,57.2
2022-10-08T07:22:28.768Z,57.4
2022-10-08T07:23:29.751Z,57.9
2022-10-08T07:24:30.705Z,58.1
2022-10-08T07:25:31.833Z,57.8
2022-10-08T07:26:32.893Z,57.9
2022-10-08T07:27:33.776Z,57.7
2022-10-08T07:28:34.818Z,56.6
2022-10-08T07:29:35.701Z,56.1
2022-10-08T07:30:36.954Z,56
2022-10-08T07:31:39.410Z,56.5
2022-10-08T07:32:40.894Z,56.5
2022-10-08T07:33:41.792Z,56.6
2022-10-08T07:34:42.855Z,56.5
2022-10-08T07:35:43.852Z,56.7
2022-10-08T07:36:44.878Z,56.2
2022-10-08T07:37:45.935Z,55.7
2022-10-08T07:38:47.892Z,55.6
2022-10-08T07:39:49.872Z,55.9
2022-10-08T07:40:50.764Z,56.1
2022-10-08T07:41:51.953Z,56.2
2022-10-08T07:42:53.913Z,56.4
2022-10-08T07:43:55.878Z,56.7
2022-10-08T07:44:57.290Z,56.8
2022-10-08T07:45:58.818Z,57.2
2022-10-08T07:46:59.753Z,57.2
2022-10-08T07:48:00.815Z,56.5
2022-10-08T07:49:01.982Z,56.2
2022-10-08T07:50:03.803Z,56.8
2022-10-08T07:51:04.804Z,57.2
2022-10-08T07:52:05.760Z,57.2
2022-10-08T07:53:06.952Z,57.1
2022-10-08T07:54:08.854Z,56.9
2022-10-08T07:55:09.893Z,57
2022-10-08T07:56:10.873Z,57.5
2022-10-08T07:57:11.841Z,57.5
2022-10-08T07:58:12.893Z,57.8
2022-10-08T07:59:13.832Z,58.3
2022-10-08T08:00:14.862Z,57.6
2022-10-08T08:01:16.182Z,57.4
2022-10-08T08:02:18.004Z,56.8
2022-10-08T08:03:19.985Z,56.9
2022-10-08T08:04:21.938Z,56.5
2022-10-08T08:05:23.813Z,55.7
2022-10-08T08:06:24.873Z,55.5
2022-10-08T08:07:25.832Z,55.5
2022-10-08T08:08:26.873Z,55.6
2022-10-08T08:09:27.878Z,55.7
2022-10-08T08:10:28.856Z,55.3
2022-10-08T08:11:29.872Z,55.1
2022-10-08T08:12:30.853Z,54.2
2022-10-08T08:13:36.673Z,54
2022-10-08T08:14:33.855Z,54.1
2022-10-08T08:15:34.806Z,54.2
2022-10-08T08:16:35.902Z,53.6
2022-10-08T08:17:36.892Z,53.4
2022-10-08T08:18:37.896Z,53.1
2022-10-08T08:19:38.852Z,52.5
2022-10-08T08:20:39.912Z,52.8
2022-10-08T08:21:40.893Z,53.9
2022-10-08T08:22:43.061Z,53.9
2022-10-08T08:23:44.876Z,54.3
2022-10-08T08:24:45.852Z,54.6
2022-10-08T08:25:46.913Z,55.1
2022-10-08T08:26:47.792Z,55.2
2022-10-08T08:27:49.452Z,55.3
2022-10-08T08:28:51.445Z,54.9
2022-10-08T08:29:52.943Z,54.7
2022-10-08T08:30:54.792Z,54.9
2022-10-08T08:31:55.914Z,54.6
2022-10-08T08:32:56.739Z,55.2
2022-10-08T08:33:57.918Z,55.2
2022-10-08T08:34:58.800Z,56.1
2022-10-08T08:35:59.854Z,55.6
2022-10-08T08:37:00.812Z,55.2
2022-10-08T08:38:01.952Z,55.2
2022-10-08T08:39:04.073Z,55.5
2022-10-08T08:40:06.026Z,55.9
2022-10-08T08:41:11.940Z,56.3
2022-10-08T08:42:09.794Z,56.1
2022-10-08T08:43:10.920Z,55.4
2022-10-08T08:44:11.873Z,55.4
2022-10-08T08:45:28.319Z,55.6
2022-10-08T08:46:14.962Z,55.8
2022-10-08T08:47:15.832Z,55.5
2022-10-08T08:48:16.954Z,55.4
2022-10-08T08:49:18.829Z,55.2
2022-10-08T08:50:19.780Z,55.3
2022-10-08T08:51:23.573Z,55.3
2022-10-08T08:52:24.853Z,55
2022-10-08T08:53:25.852Z,55.3
2022-10-08T08:54:26.874Z,55.4
2022-10-08T08:55:27.873Z,54.9
2022-10-08T08:56:28.853Z,54.8
2022-10-08T08:57:29.914Z,54.7
2022-10-08T08:58:32.467Z,54.3
2022-10-08T08:59:33.995Z,53.2
2022-10-08T09:00:35.981Z,51.7
2022-10-08T09:01:38.049Z,52.6
2022-10-08T09:02:39.874Z,53.6
2022-10-08T09:03:40.920Z,53.7
2022-10-08T09:04:45.170Z,54
2022-10-08T09:05:43.063Z,54.1
2022-10-08T09:06:45.073Z,53.8
2022-10-08T09:07:46.957Z,54.3
2022-10-08T09:08:47.912Z,53.8
2022-10-08T09:09:48.918Z,53.4
2022-10-08T09:10:49.833Z,53.7
2022-10-08T09:11:51.053Z,53.7
2022-10-08T09:12:52.992Z,54
2022-10-08T09:13:54.793Z,54.9
2022-10-08T09:14:55.921Z,53.9
2022-10-08T09:15:56.793Z,54.3
2022-10-08T09:16:57.904Z,54.9
2022-10-08T09:17:58.852Z,54.2
2022-10-08T09:18:59.853Z,53.8
2022-10-08T09:20:00.836Z,53.3
2022-10-08T09:21:01.788Z,52.5
2022-10-08T09:22:03.123Z,52.5
2022-10-08T09:23:04.990Z,52.7
2022-10-08T09:24:06.873Z,53
2022-10-08T09:25:07.885Z,53.1
2022-10-08T09:26:08.964Z,53.6
2022-10-08T09:27:10.953Z,52.8
2022-10-08T09:28:11.936Z,53.1
2022-10-08T09:29:12.861Z,53.7
2022-10-08T09:30:13.939Z,53.6
2022-10-08T09:31:14.954Z,53.7
2022-10-08T09:32:15.877Z,54.5
2022-10-08T09:33:16.900Z,55
2022-10-08T09:34:17.833Z,54.8
2022-10-08T09:35:19.021Z,54.3
2022-10-08T09:36:20.963Z,54
2022-10-08T09:37:22.886Z,54.6
2022-10-08T09:38:23.813Z,54.5
2022-10-08T09:39:24.873Z,53.8
2022-10-08T09:40:26.056Z,53.8
2022-10-08T09:41:28.036Z,53.6
2022-10-08T09:42:29.874Z,53.9
2022-10-08T09:43:30.895Z,54.3
2022-10-08T09:44:31.892Z,53.5
2022-10-08T09:45:33.028Z,53.4
2022-10-08T09:46:34.867Z,53.8
2022-10-08T09:47:35.814Z,52.9
2022-10-08T09:48:36.972Z,53
2022-10-08T09:49:38.989Z,53.1
2022-10-08T09:50:40.939Z,54.1
2022-10-08T09:51:41.894Z,53.1
2022-10-08T09:52:42.895Z,53.4
2022-10-08T09:53:43.893Z,53.2
2022-10-08T09:54:44.872Z,53.7
2022-10-08T09:55:45.829Z,53.1
2022-10-08T09:56:47.010Z,52.9
2022-10-08T09:57:48.972Z,53.5
2022-10-08T09:58:49.972Z,54.3
2022-10-08T09:59:50.915Z,54.1
2022-10-08T10:00:51.950Z,53.8
2022-10-08T10:01:52.866Z,54.3
2022-10-08T10:02:54.055Z,54
2022-10-08T10:03:56.029Z,55.5
2022-10-08T10:04:57.953Z,55.6
2022-10-08T10:05:59.876Z,54.1
2022-10-08T10:07:00.917Z,53.8
2022-10-08T10:08:01.932Z,53.7
2022-10-08T10:09:02.929Z,53.7
2022-10-08T10:10:04.088Z,52.8
2022-10-08T10:11:06.015Z,52.6
2022-10-08T10:12:07.959Z,52.1
2022-10-08T10:13:09.873Z,52.2
2022-10-08T10:14:10.893Z,53.1
2022-10-08T10:15:11.876Z,52.7
2022-10-08T10:16:12.833Z,51.6
2022-10-08T10:17:13.833Z,52.4
2022-10-08T10:18:14.900Z,52.7
2022-10-08T10:19:16.056Z,52.8
2022-10-08T10:20:18.111Z,53.8
2022-10-08T10:21:19.978Z,53.4
2022-10-08T10:22:20.884Z,53.3
2022-10-08T10:23:21.973Z,52.7
2022-10-08T10:24:23.953Z,52.9
2022-10-08T10:25:24.862Z,52.7
2022-10-08T10:26:25.901Z,53
2022-10-08T10:27:26.893Z,53.5
2022-10-08T10:28:27.921Z,54
2022-10-08T10:29:28.926Z,53.8
2022-10-08T10:30:29.949Z,53.8
2022-10-08T10:31:30.953Z,53.8
2022-10-08T10:32:32.381Z,53.2
2022-10-08T10:33:32.947Z,53.4
2022-10-08T10:34:34.053Z,52.9
2022-10-08T10:35:35.848Z,53.3
2022-10-08T10:36:36.834Z,53.7
2022-10-08T10:37:37.803Z,53.7
2022-10-08T10:38:42.867Z,52.4
2022-10-08T10:39:39.777Z,52.3
2022-10-08T10:40:40.896Z,52.1
2022-10-08T10:41:42.173Z,52.3
2022-10-08T10:42:43.787Z,52.3
2022-10-08T10:43:44.873Z,51.5
2022-10-08T10:44:45.875Z,52.2
2022-10-08T10:45:46.995Z,52.1
2022-10-08T10:46:47.932Z,51.6
2022-10-08T10:47:49.012Z,52.7
2022-10-08T10:48:49.933Z,52.4
2022-10-08T10:49:50.976Z,52.5
2022-10-08T10:50:51.932Z,53.8
2022-10-08T10:51:53.038Z,53.3
2022-10-08T10:52:54.092Z,52.3
2022-10-08T10:53:56.055Z,51.5
2022-10-08T10:54:58.132Z,52.2
2022-10-08T10:55:59.942Z,51.7
2022-10-08T10:57:01.019Z,52.3
2022-10-08T10:58:03.193Z,52.5
2022-10-08T10:59:05.112Z,52.7
2022-10-08T11:00:07.096Z,53
2022-10-08T11:01:09.188Z,53.5
2022-10-08T11:02:11.158Z,53.8
2022-10-08T11:03:13.129Z,53.5
2022-10-08T11:04:14.976Z,53.4
2022-10-08T11:05:15.953Z,53.9
2022-10-08T11:06:16.972Z,53.8
2022-10-08T11:07:18.139Z,53.6
2022-10-08T11:08:20.001Z,53.5
2022-10-08T11:09:21.013Z,52.7
2022-10-08T11:10:21.973Z,52.8
2022-10-08T11:11:24.056Z,52.6
2022-10-08T11:12:26.112Z,52.8
2022-10-08T11:13:28.080Z,52.6
2022-10-08T11:14:30.049Z,52.6
2022-10-08T11:15:32.112Z,52.5
2022-10-08T11:16:34.156Z,52
2022-10-08T11:17:36.114Z,52.4
2022-10-08T11:18:38.002Z,52.8
2022-10-08T11:19:39.954Z,52.1
2022-10-08T11:20:40.873Z,52.3
2022-10-08T11:21:42.032Z,52.9
2022-10-08T11:22:44.196Z,52.9
2022-10-08T11:23:46.133Z,53.2
2022-10-08T11:24:47.949Z,53.1
2022-10-08T11:26:11.064Z,52.7
2022-10-08T11:26:50.033Z,53.2
2022-10-08T11:27:52.093Z,53
2022-10-08T11:28:54.185Z,53.3
2022-10-08T11:29:56.133Z,53
2022-10-08T11:30:58.146Z,52.8
2022-10-08T11:31:59.995Z,53.1
2022-10-08T11:33:01.112Z,53
2022-10-08T11:34:03.173Z,53.2
2022-10-08T11:35:04.950Z,52.8
2022-10-08T11:36:05.933Z,53.3
2022-10-08T11:37:06.946Z,53.3
2022-10-08T11:38:08.115Z,53.8
2022-10-08T11:39:10.172Z,54.5
2022-10-08T11:40:12.194Z,54.1
2022-10-08T11:41:14.092Z,54.1
2022-10-08T11:42:16.075Z,54.4
2022-10-08T11:43:18.213Z,54.9
2022-10-08T11:44:20.072Z,54.8
2022-10-08T11:45:22.434Z,54.6
2022-10-08T11:46:24.198Z,54.7
2022-10-08T11:47:26.113Z,54.4
2022-10-08T11:48:28.098Z,54.3
2022-10-08T11:49:30.012Z,54.6
2022-10-08T11:50:30.938Z,54.3
2022-10-08T11:51:31.933Z,53.8
2022-10-08T11:52:32.933Z,53.9
2022-10-08T11:53:34.118Z,54.5
2022-10-08T11:54:35.993Z,54.5
2022-10-08T11:55:36.936Z,54.7
2022-10-08T11:56:38.215Z,54.7
2022-10-08T11:58:09.667Z,55
2022-10-08T11:58:40.973Z,54.5
2022-10-08T11:59:41.955Z,55.2
2022-10-08T12:00:42.979Z,54.9
2022-10-08T12:01:44.053Z,54.7
2022-10-08T12:02:46.562Z,54.9
2022-10-08T12:03:47.980Z,55.7
2022-10-08T12:04:49.013Z,55
2022-10-08T12:05:50.507Z,54.7
2022-10-08T12:06:51.018Z,54.8
2022-10-08T12:07:51.983Z,54.5
2022-10-08T12:08:53.498Z,54.1
2022-10-08T12:09:55.141Z,54.9
2022-10-08T12:10:57.132Z,54.5
2022-10-08T12:11:58.953Z,54.1
2022-10-08T12:12:59.936Z,54.8
2022-10-08T12:14:00.974Z,55.5
2022-10-08T12:15:01.896Z,56.3
2022-10-08T12:16:03.152Z,56.7
2022-10-08T12:17:05.014Z,56.6
2022-10-08T12:18:06.032Z,56.2
2022-10-08T12:19:06.917Z,55.5
2022-10-08T12:20:07.954Z,55.2
2022-10-08T12:21:08.959Z,55.2
2022-10-08T12:22:10.014Z,55.5
2022-10-08T12:23:10.952Z,56.5
2022-10-08T12:24:12.017Z,56.7
2022-10-08T12:25:13.042Z,56.4
2022-10-08T12:26:14.025Z,56
2022-10-08T12:27:14.914Z,55.8
2022-10-08T12:28:16.188Z,55.8
2022-10-08T12:29:18.073Z,55.9
2022-10-08T12:30:20.151Z,56
2022-10-08T12:31:22.174Z,56.4
2022-10-08T12:32:24.135Z,56.8
2022-10-08T12:33:25.941Z,57.2
2022-10-08T12:34:27.053Z,57.2
2022-10-08T12:35:27.972Z,57.2
2022-10-08T12:36:29.005Z,57.2
2022-10-08T12:37:29.953Z,56.7
2022-10-08T12:38:31.052Z,57
2022-10-08T12:39:32.079Z,57.4
2022-10-08T12:40:34.177Z,57.5
2022-10-08T12:41:36.211Z,58.1
2022-10-08T12:42:38.232Z,57.4
2022-10-08T12:43:40.193Z,57.8
2022-10-08T12:44:42.113Z,58.4
2022-10-08T12:45:44.174Z,57.8
2022-10-08T12:46:50.188Z,57.7
2022-10-08T12:47:48.356Z,57.6
2022-10-08T12:48:49.979Z,57.5
2022-10-08T12:49:51.061Z,57.7
2022-10-08T12:50:52.035Z,57.4
2022-10-08T12:51:53.161Z,57.6
2022-10-08T12:52:55.253Z,57.4
2022-10-08T12:53:57.042Z,57.4
2022-10-08T12:54:58.038Z,57.4
2022-10-08T12:55:58.993Z,57.3
2022-10-08T12:56:59.980Z,57.3
2022-10-08T12:58:00.932Z,57.9
2022-10-08T12:59:02.014Z,57.9
2022-10-08T13:00:03.355Z,57.6
2022-10-08T13:01:05.171Z,57.3
2022-10-08T13:02:06.056Z,57.5
2022-10-08T13:03:06.973Z,57.3
2022-10-08T13:04:07.995Z,57.6
2022-10-08T13:05:09.060Z,57.8
2022-10-08T13:06:10.063Z,58.2
2022-10-08T13:07:10.994Z,58.5
2022-10-08T13:08:11.954Z,58.4
2022-10-08T13:09:12.975Z,58
2022-10-08T13:10:14.017Z,57.8
2022-10-08T13:11:14.993Z,57.5
2022-10-08T13:12:15.933Z,57.4
2022-10-08T13:13:16.932Z,57.9
2022-10-08T13:14:18.120Z,57.2
2022-10-08T13:15:20.043Z,57.4
2022-10-08T13:16:21.171Z,57.3
2022-10-08T13:17:21.972Z,57.3
2022-10-08T13:18:23.032Z,57.3
2022-10-08T13:19:24.013Z,57.5
2022-10-08T13:20:24.992Z,57.7
2022-10-08T13:21:25.956Z,57.4
2022-10-08T13:22:26.974Z,57.4
2022-10-08T13:23:27.992Z,57.5
2022-10-08T13:24:29.093Z,57
2022-10-08T13:25:29.996Z,57.6
2022-10-08T13:26:30.971Z,57.9
2022-10-08T13:27:31.973Z,57.6
2022-10-08T13:28:58.932Z,57.5
2022-10-08T13:29:35.093Z,57.3
2022-10-08T13:30:35.992Z,57.5
2022-10-08T13:31:36.967Z,57.6
2022-10-08T13:32:37.874Z,58
2022-10-08T13:33:39.193Z,58
2022-10-08T13:34:40.994Z,57.6
2022-10-08T13:35:42.055Z,57.3
2022-10-08T13:36:42.993Z,57.3
2022-10-08T13:37:43.997Z,57.7
2022-10-08T13:38:44.999Z,57.5
2022-10-08T13:39:46.008Z,57.9
2022-10-08T13:40:46.990Z,57.6
2022-10-08T13:41:51.614Z,57.7
2022-10-08T13:42:49.073Z,57.9
2022-10-08T13:43:50.056Z,57.7
2022-10-08T13:44:51.052Z,57.1
2022-10-08T13:45:52.033Z,57.3